Time;durP1;ratioP1;P1;durP2;ratioP2;P2;SDS_P1;SDS_P2;PMS_P1;PMS_P2;Temp;Humidity;BMP_temperature;BMP_pressure;BME280_temperature;BME280_humidity;BME280_pressure;Samples;Min_cycle;Max_cycle;Signal;HPM_P1;HPM_P2
2023/05/23 00:02:14;;;;;;;33.95;21.70;;;17.30;99.90;;;;;;5006579;28;20212;-35
2023/05/23 00:04:41;;;;;;;37.45;22.65;;;17.30;99.90;;;;;;5004689;28;20209;-35
2023/05/23 00:07:13;;;;;;;32.78;21.38;;;17.30;99.90;;;;;;4973386;28;20467;-35
2023/05/23 00:09:45;;;;;;;35.45;22.38;;;17.30;99.90;;;;;;5006480;28;20194;-35
2023/05/23 00:12:19;;;;;;;29.77;19.90;;;17.40;99.90;;;;;;5006282;28;20235;-35
2023/05/23 00:14:49;;;;;;;29.35;20.48;;;17.40;99.90;;;;;;5002783;28;20320;-35
2023/05/23 00:17:16;;;;;;;37.33;21.58;;;17.40;99.90;;;;;;4985308;28;20222;-35
2023/05/23 00:19:45;;;;;;;32.33;21.40;;;17.40;99.90;;;;;;4986001;28;20194;-35
2023/05/23 00:22:16;;;;;;;38.35;21.13;;;17.40;99.90;;;;;;4984267;28;20309;-35
2023/05/23 00:24:45;;;;;;;31.23;19.85;;;17.40;99.90;;;;;;4969171;28;20214;-35
2023/05/23 00:27:15;;;;;;;32.58;20.77;;;17.50;99.90;;;;;;4999197;28;20209;-35
2023/05/23 00:29:45;;;;;;;30.65;21.75;;;17.50;99.90;;;;;;5005157;28;20628;-35
2023/05/23 00:32:16;;;;;;;30.77;20.25;;;17.50;99.90;;;;;;5003977;28;20193;-35
2023/05/23 00:34:48;;;;;;;32.58;20.52;;;17.50;99.90;;;;;;5005570;28;20581;-35
2023/05/23 00:37:19;;;;;;;33.67;22.20;;;17.50;99.90;;;;;;4982733;28;20236;-35
2023/05/23 00:39:49;;;;;;;31.27;21.02;;;17.50;99.90;;;;;;4969729;28;20226;-35
2023/05/23 00:42:16;;;;;;;32.65;20.52;;;17.50;99.90;;;;;;4984632;28;20210;-35
2023/05/23 00:44:47;;;;;;;26.35;18.75;;;17.50;99.90;;;;;;4985486;28;20209;-35
2023/05/23 00:47:14;;;;;;;25.90;19.33;;;17.50;99.90;;;;;;5003763;28;20733;-36
2023/05/23 00:49:45;;;;;;;30.27;18.50;;;17.50;99.90;;;;;;5003308;28;20232;-35
2023/05/23 00:52:13;;;;;;;27.05;18.90;;;17.50;99.90;;;;;;4983869;28;20854;-35
2023/05/23 00:54:44;;;;;;;26.35;18.95;;;17.50;99.90;;;;;;4984320;28;20198;-35
2023/05/23 00:57:15;;;;;;;28.85;19.23;;;17.50;99.90;;;;;;4986115;28;20258;-35
2023/05/23 00:59:45;;;;;;;28.08;18.83;;;17.50;99.90;;;;;;5000102;28;20233;-35
2023/05/23 01:02:13;;;;;;;25.65;17.95;;;17.50;99.90;;;;;;4995294;28;20292;-35
2023/05/23 01:04:42;;;;;;;31.30;19.85;;;17.50;99.90;;;;;;4998368;28;20245;-35
2023/05/23 01:07:12;;;;;;;27.38;17.88;;;17.50;99.90;;;;;;4978857;28;20700;-35
2023/05/23 01:09:42;;;;;;;25.20;17.90;;;17.60;99.90;;;;;;4998430;28;20675;-35
2023/05/23 01:12:18;;;;;;;30.15;18.50;;;17.60;99.90;;;;;;4994584;28;20213;-35
2023/05/23 01:14:59;;;;;;;25.17;18.83;;;17.60;99.90;;;;;;4998779;28;20213;-35
2023/05/23 01:17:40;;;;;;;27.63;19.55;;;17.60;99.90;;;;;;4988433;28;20876;-35
2023/05/23 01:20:11;;;;;;;31.95;19.90;;;17.60;99.90;;;;;;4983575;28;20206;-35
2023/05/23 01:22:54;;;;;;;36.45;21.38;;;17.60;99.90;;;;;;4984662;28;20229;-35
2023/05/23 01:25:40;;;;;;;30.60;20.60;;;17.60;99.90;;;;;;4984693;28;20209;-35
2023/05/23 01:28:11;;;;;;;30.95;19.90;;;17.50;99.90;;;;;;4982934;28;20744;-35
2023/05/23 01:30:43;;;;;;;28.67;18.50;;;17.50;99.90;;;;;;4986971;28;20620;-35
2023/05/23 01:33:18;;;;;;;28.90;19.92;;;17.50;99.90;;;;;;4999906;28;20231;-35
2023/05/23 01:35:48;;;;;;;27.25;18.60;;;17.50;99.90;;;;;;5004761;28;20207;-35
2023/05/23 01:38:18;;;;;;;30.42;17.95;;;17.50;99.90;;;;;;5004488;28;20688;-35
2023/05/23 01:40:47;;;;;;;27.52;16.60;;;17.50;99.90;;;;;;5001733;28;20213;-35
2023/05/23 01:43:21;;;;;;;28.30;17.50;;;17.50;99.90;;;;;;4998710;28;20268;-34
2023/05/23 01:45:51;;;;;;;27.75;17.45;;;17.50;99.90;;;;;;5000285;28;20210;-34
2023/05/23 01:48:23;;;;;;;23.52;15.45;;;17.50;99.90;;;;;;4988235;28;20242;-34
2023/05/23 01:50:55;;;;;;;25.50;15.75;;;17.50;99.90;;;;;;4983228;28;20284;-34
2023/05/23 01:53:26;;;;;;;27.38;17.77;;;17.50;99.90;;;;;;4980235;28;20218;-34
2023/05/23 01:55:54;;;;;;;24.45;16.70;;;17.50;99.90;;;;;;4983991;28;20269;-34
2023/05/23 01:58:24;;;;;;;23.58;16.55;;;17.40;99.90;;;;;;4984874;28;20240;-35
2023/05/23 02:00:54;;;;;;;21.73;14.57;;;17.40;99.90;;;;;;4984659;28;20265;-35
2023/05/23 02:03:26;;;;;;;23.50;15.30;;;17.40;99.90;;;;;;4982545;28;20199;-35
2023/05/23 02:05:56;;;;;;;20.20;15.02;;;17.50;99.90;;;;;;4984764;28;20214;-35
2023/05/23 02:08:23;;;;;;;21.58;15.45;;;17.50;99.90;;;;;;4967175;28;20579;-35
2023/05/23 02:10:53;;;;;;;21.58;15.45;;;17.50;99.90;;;;;;4986275;28;20295;-35
2023/05/23 02:13:20;;;;;;;22.73;14.63;;;17.50;99.90;;;;;;4967467;28;20205;-35
2023/05/23 02:15:49;;;;;;;22.98;15.85;;;17.50;99.90;;;;;;4984999;28;20646;-35
2023/05/23 02:18:19;;;;;;;19.52;14.80;;;17.50;99.90;;;;;;4979910;28;20762;-35
2023/05/23 02:20:51;;;;;;;21.85;15.25;;;17.50;99.90;;;;;;4985214;28;20207;-35
2023/05/23 02:23:20;;;;;;;20.17;15.73;;;17.50;99.90;;;;;;4984443;28;20260;-35
2023/05/23 02:25:47;;;;;;;20.42;15.50;;;17.60;99.90;;;;;;4966998;28;20206;-36
2023/05/23 02:28:16;;;;;;;20.63;15.10;;;17.60;99.90;;;;;;4983872;28;20687;-36
2023/05/23 02:30:46;;;;;;;19.77;13.68;;;17.60;99.90;;;;;;4984186;28;20305;-35
2023/05/23 02:33:15;;;;;;;17.25;13.05;;;17.60;99.90;;;;;;4997801;28;20748;-35
2023/05/23 02:35:42;;;;;;;15.73;12.27;;;17.60;99.90;;;;;;5004430;28;20213;-35
2023/05/23 02:38:12;;;;;;;19.00;12.82;;;17.60;99.90;;;;;;4998155;28;20237;-35
2023/05/23 02:40:39;;;;;;;16.33;12.75;;;17.60;99.90;;;;;;4986305;28;20201;-35
2023/05/23 02:43:06;;;;;;;15.18;12.27;;;17.60;99.90;;;;;;4981898;28;20202;-35
2023/05/23 02:45:33;;;;;;;15.90;12.55;;;17.50;99.90;;;;;;4982803;28;20276;-35
2023/05/23 02:48:03;;;;;;;15.93;12.27;;;17.50;99.90;;;;;;4994542;28;20558;-35
2023/05/23 02:50:30;;;;;;;15.40;11.77;;;17.50;99.90;;;;;;5004131;28;20205;-35
2023/05/23 02:52:58;;;;;;;14.23;11.40;;;17.40;99.90;;;;;;5002226;28;20307;-35
2023/05/23 02:55:25;;;;;;;14.95;10.65;;;17.40;99.90;;;;;;4996808;28;20225;-35
2023/05/23 02:57:55;;;;;;;15.38;11.18;;;17.40;99.90;;;;;;4983916;28;20248;-35
2023/05/23 03:00:22;;;;;;;12.45;10.32;;;17.40;99.90;;;;;;4984487;28;20636;-35
2023/05/23 03:02:51;;;;;;;17.75;11.95;;;17.40;99.90;;;;;;4984412;28;20214;-35
2023/05/23 03:05:19;;;;;;;16.20;11.82;;;17.40;99.90;;;;;;4985553;28;20213;-35
2023/05/23 03:07:50;;;;;;;15.73;11.88;;;17.40;99.90;;;;;;4966434;28;20970;-35
2023/05/23 03:10:17;;;;;;;14.43;11.55;;;17.30;99.90;;;;;;4983888;28;20210;-35
2023/05/23 03:12:47;;;;;;;16.45;11.20;;;17.30;99.90;;;;;;4984283;28;20210;-35
2023/05/23 03:15:17;;;;;;;15.07;11.90;;;17.30;99.90;;;;;;4984466;28;20210;-35
2023/05/23 03:17:46;;;;;;;15.88;12.27;;;17.30;99.90;;;;;;4983796;28;20280;-35
2023/05/23 03:20:13;;;;;;;16.75;12.27;;;17.30;99.90;;;;;;4985785;28;20260;-35
2023/05/23 03:22:44;;;;;;;20.88;14.27;;;17.20;99.90;;;;;;4997821;28;20198;-35
2023/05/23 03:25:11;;;;;;;23.92;14.50;;;17.20;99.90;;;;;;4984237;28;20209;-35
2023/05/23 03:27:38;;;;;;;23.02;14.40;;;17.10;99.90;;;;;;4983744;28;20199;-35
2023/05/23 03:30:09;;;;;;;25.40;17.00;;;17.10;99.90;;;;;;4984424;28;20245;-35
2023/05/23 03:32:36;;;;;;;21.45;15.98;;;17.00;99.90;;;;;;5000533;28;20563;-34
2023/05/23 03:35:06;;;;;;;26.77;16.08;;;17.00;99.90;;;;;;5001751;28;20210;-35
2023/05/23 03:37:38;;;;;;;24.67;15.82;;;17.00;99.90;;;;;;5004014;28;20720;-35
2023/05/23 03:40:08;;;;;;;25.67;16.98;;;17.00;99.90;;;;;;5005028;28;20197;-35
2023/05/23 03:42:37;;;;;;;27.67;15.85;;;16.90;99.90;;;;;;5002751;28;20206;-35
2023/05/23 03:45:09;;;;;;;25.65;16.05;;;16.90;99.90;;;;;;5004329;28;20676;-35
2023/05/23 03:47:39;;;;;;;22.63;15.40;;;16.90;99.90;;;;;;4988202;28;20328;-35
2023/05/23 03:50:09;;;;;;;21.83;15.55;;;16.90;99.90;;;;;;4986335;28;20301;-35
2023/05/23 03:52:36;;;;;;;23.48;16.40;;;16.90;99.90;;;;;;4986985;28;20253;-35
2023/05/23 03:55:10;;;;;;;26.52;16.85;;;16.80;99.90;;;;;;4986698;28;20214;-35
2023/05/23 03:57:39;;;;;;;26.30;16.95;;;16.80;99.90;;;;;;4986631;28;20571;-35
2023/05/23 04:00:11;;;;;;;25.15;16.52;;;16.80;99.90;;;;;;4985511;28;20604;-35
2023/05/23 04:02:43;;;;;;;26.67;18.17;;;16.80;99.90;;;;;;4986228;28;20199;-35
2023/05/23 04:05:11;;;;;;;24.33;16.45;;;16.80;99.90;;;;;;5004554;28;20222;-35
2023/05/23 04:07:42;;;;;;;28.25;17.42;;;16.70;99.90;;;;;;5006108;28;20288;-35
2023/05/23 04:10:11;;;;;;;35.35;21.13;;;16.70;99.90;;;;;;4989850;28;20645;-35
2023/05/23 04:12:41;;;;;;;28.65;17.33;;;16.60;99.90;;;;;;4986217;28;20218;-34
2023/05/23 04:15:10;;;;;;;30.02;17.17;;;16.60;99.90;;;;;;4986026;28;20202;-34
2023/05/23 04:17:37;;;;;;;25.52;16.05;;;16.50;99.90;;;;;;4983581;28;20226;-34
2023/05/23 04:20:11;;;;;;;21.65;14.23;;;16.50;99.90;;;;;;4969096;28;20568;-35
2023/05/23 04:22:42;;;;;;;20.05;12.48;;;16.50;99.90;;;;;;4984614;28;20198;-34
2023/05/23 04:25:12;;;;;;;14.77;10.32;;;16.50;99.90;;;;;;4985749;28;20210;-35
2023/05/23 04:27:44;;;;;;;19.83;11.07;;;16.50;99.90;;;;;;4985962;28;20202;-35
2023/05/23 04:30:16;;;;;;;19.17;11.88;;;16.50;99.90;;;;;;5000123;28;21069;-35
2023/05/23 04:32:45;;;;;;;16.92;11.00;;;16.50;99.90;;;;;;5004826;28;20210;-35
2023/05/23 04:35:15;;;;;;;19.48;12.73;;;16.50;99.90;;;;;;5002527;28;20260;-35
2023/05/23 04:37:44;;;;;;;14.85;10.57;;;16.50;99.90;;;;;;5000047;28;20722;-35
2023/05/23 04:40:16;;;;;;;15.85;10.57;;;16.50;99.90;;;;;;4994294;28;20225;-35
2023/05/23 04:42:48;;;;;;;16.50;11.63;;;16.50;99.90;;;;;;4985840;28;20205;-34
2023/05/23 04:45:20;;;;;;;14.18;10.77;;;16.50;99.90;;;;;;4985690;28;20202;-35
2023/05/23 04:47:48;;;;;;;14.93;11.15;;;16.60;99.90;;;;;;4983124;28;20329;-35
2023/05/23 04:50:15;;;;;;;19.83;11.80;;;16.60;99.90;;;;;;4982468;28;20209;-35
2023/05/23 04:52:45;;;;;;;15.88;10.80;;;16.60;99.90;;;;;;4985281;28;20218;-35
2023/05/23 04:55:18;;;;;;;15.35;10.20;;;16.60;99.90;;;;;;4991458;28;20245;-35
2023/05/23 04:57:48;;;;;;;16.85;11.02;;;16.60;99.90;;;;;;4967745;28;20436;-35
2023/05/23 05:00:16;;;;;;;15.70;10.07;;;16.70;99.90;;;;;;4987963;28;20210;-35
2023/05/23 05:02:43;;;;;;;15.45;10.18;;;16.70;99.90;;;;;;4997139;28;20341;-33
2023/05/23 05:05:10;;;;;;;13.85;9.55;;;16.70;99.90;;;;;;4962360;28;20226;-33
2023/05/23 05:07:38;;;;;;;16.23;9.57;;;16.70;99.90;;;;;;4987705;28;20949;-34
2023/05/23 05:10:15;;;;;;;13.98;9.95;;;16.80;99.90;;;;;;4992575;28;20698;-33
2023/05/23 05:12:48;;;;;;;13.15;9.55;;;16.80;99.90;;;;;;4998942;28;20213;-34
2023/05/23 05:15:16;;;;;;;15.05;9.65;;;16.80;99.90;;;;;;4999399;28;20253;-34
2023/05/23 05:17:44;;;;;;;14.43;9.38;;;16.80;99.90;;;;;;5003238;28;20400;-34
2023/05/23 05:20:16;;;;;;;17.95;10.48;;;16.80;99.90;;;;;;4997157;28;20210;-34
2023/05/23 05:22:44;;;;;;;12.00;8.95;;;16.80;99.90;;;;;;4996955;28;20291;-34
2023/05/23 05:25:16;;;;;;;13.38;9.95;;;16.80;99.90;;;;;;4989803;28;20209;-34
2023/05/23 05:27:46;;;;;;;12.48;9.23;;;16.80;99.90;;;;;;5002131;28;20236;-34
2023/05/23 05:30:17;;;;;;;13.27;8.93;;;16.90;99.90;;;;;;5004227;28;20217;-33
2023/05/23 05:32:45;;;;;;;15.20;10.05;;;16.90;99.90;;;;;;4986743;28;20202;-34
2023/05/23 05:35:15;;;;;;;15.60;9.55;;;16.90;99.90;;;;;;4991842;28;20214;-34
2023/05/23 05:37:45;;;;;;;11.93;8.88;;;16.90;99.90;;;;;;4993784;28;20252;-34
2023/05/23 05:40:12;;;;;;;12.60;8.35;;;16.90;99.90;;;;;;5003836;28;20213;-33
2023/05/23 05:42:39;;;;;;;11.88;8.60;;;16.90;99.90;;;;;;4993407;28;20647;-33
2023/05/23 05:45:07;;;;;;;14.55;8.68;;;16.90;99.90;;;;;;4988187;28;20211;-34
2023/05/23 05:47:37;;;;;;;12.40;8.75;;;17.00;99.90;;;;;;5002799;28;20213;-33
2023/05/23 05:50:08;;;;;;;13.82;9.30;;;17.00;99.90;;;;;;4982281;28;20210;-34
2023/05/23 05:52:38;;;;;;;12.18;8.18;;;17.00;99.90;;;;;;4991707;28;20656;-34
2023/05/23 05:55:12;;;;;;;14.98;9.65;;;17.00;99.90;;;;;;4989214;28;20209;-34
2023/05/23 05:57:40;;;;;;;11.65;9.27;;;17.10;99.90;;;;;;4980705;28;20716;-33
2023/05/23 06:00:14;;;;;;;13.77;8.68;;;17.10;99.90;;;;;;4998010;28;20288;-34
2023/05/23 06:02:45;;;;;;;15.90;10.40;;;17.10;99.90;;;;;;4995378;28;20202;-33
2023/05/23 06:05:16;;;;;;;13.45;9.68;;;17.10;99.90;;;;;;4985670;28;20225;-34
2023/05/23 06:07:50;;;;;;;18.35;10.35;;;17.10;99.90;;;;;;4989564;28;20448;-34
2023/05/23 06:10:17;;;;;;;15.07;10.35;;;17.10;99.90;;;;;;4992632;28;20751;-34
2023/05/23 06:12:47;;;;;;;19.20;11.50;;;17.10;99.90;;;;;;4997764;28;20724;-34
2023/05/23 06:15:17;;;;;;;21.00;11.95;;;17.00;99.90;;;;;;4984947;28;20202;-34
2023/05/23 06:17:50;;;;;;;23.50;11.80;;;17.00;99.90;;;;;;4984676;28;20593;-34
2023/05/23 06:20:17;;;;;;;22.45;12.80;;;16.90;99.90;;;;;;4985823;28;20210;-33
2023/05/23 06:22:45;;;;;;;21.40;11.32;;;16.90;99.90;;;;;;4998703;28;20767;-34
2023/05/23 06:25:14;;;;;;;29.58;13.38;;;16.80;99.90;;;;;;4979985;28;20248;-33
2023/05/23 06:27:46;;;;;;;24.25;13.73;;;16.80;99.90;;;;;;4993106;28;20233;-34
2023/05/23 06:30:16;;;;;;;29.60;13.15;;;16.70;99.90;;;;;;4994218;28;20216;-34
2023/05/23 06:32:45;;;;;;;23.55;12.23;;;16.60;99.90;;;;;;5002790;28;20519;-34
2023/05/23 06:35:16;;;;;;;25.58;12.65;;;16.60;99.90;;;;;;4982728;28;20226;-34
2023/05/23 06:37:47;;;;;;;21.50;11.82;;;16.60;99.90;;;;;;4984322;28;20664;-34
2023/05/23 06:40:16;;;;;;;22.33;11.43;;;16.60;99.90;;;;;;5000106;28;20213;-34
2023/05/23 06:42:44;;;;;;;20.80;11.05;;;16.60;99.90;;;;;;4998648;28;20198;-33
2023/05/23 06:45:11;;;;;;;25.55;12.93;;;16.60;99.90;;;;;;4996425;28;20568;-34
2023/05/23 06:47:44;;;;;;;28.15;12.05;;;16.60;99.90;;;;;;4983069;28;20206;-33
2023/05/23 06:50:12;;;;;;;19.23;10.02;;;16.60;99.90;;;;;;4990086;28;20205;-33
2023/05/23 06:52:42;;;;;;;25.00;11.15;;;16.50;99.90;;;;;;4994561;28;20203;-34
2023/05/23 06:55:17;;;;;;;23.52;11.27;;;16.50;99.90;;;;;;4997380;28;20217;-34
2023/05/23 06:57:46;;;;;;;22.88;9.75;;;16.50;99.90;;;;;;4984793;28;20723;-33
2023/05/23 07:00:18;;;;;;;17.52;8.88;;;16.50;99.90;;;;;;4992137;28;20645;-34
2023/05/23 07:02:47;;;;;;;18.25;8.02;;;16.50;99.90;;;;;;4985849;28;20276;-34
2023/05/23 07:05:17;;;;;;;18.85;8.15;;;16.50;99.90;;;;;;4983883;28;20266;-34
2023/05/23 07:07:47;;;;;;;14.60;7.32;;;16.50;99.90;;;;;;4990163;28;20202;-33
2023/05/23 07:10:18;;;;;;;15.52;7.63;;;16.50;99.90;;;;;;4988179;28;20264;-34
2023/05/23 07:12:52;;;;;;;21.70;7.67;;;16.60;99.90;;;;;;5003745;28;20193;-34
2023/05/23 07:15:19;;;;;;;13.70;6.68;;;16.50;99.90;;;;;;4984373;28;20214;-33
2023/05/23 07:17:46;;;;;;;15.70;7.05;;;16.60;99.90;;;;;;4994255;28;20233;-33
2023/05/23 07:20:20;;;;;;;16.48;7.60;;;16.60;99.90;;;;;;4991227;28;20206;-33
2023/05/23 07:22:50;;;;;;;12.60;6.30;;;16.70;99.90;;;;;;4987621;28;20567;-34
2023/05/23 07:25:22;;;;;;;15.13;5.13;;;16.70;99.90;;;;;;4987969;28;20563;-34
2023/05/23 07:27:51;;;;;;;10.68;4.60;;;16.70;99.90;;;;;;4993941;28;20419;-33
2023/05/23 07:30:20;;;;;;;8.52;4.38;;;16.70;99.90;;;;;;4992354;28;20206;-34
2023/05/23 07:32:51;;;;;;;13.63;5.10;;;16.70;99.90;;;;;;4994566;28;20220;-33
2023/05/23 07:35:24;;;;;;;10.15;4.53;;;16.70;99.90;;;;;;4997358;28;20387;-33
2023/05/23 07:37:55;;;;;;;8.45;4.03;;;16.70;99.90;;;;;;4987491;28;20229;-34
2023/05/23 07:40:23;;;;;;;11.35;4.32;;;16.70;99.90;;;;;;4986036;28;20530;-34
2023/05/23 07:42:53;;;;;;;8.33;4.20;;;16.70;99.90;;;;;;5002488;28;20202;-35
2023/05/23 07:45:20;;;;;;;10.23;3.95;;;16.70;99.90;;;;;;4992445;28;20206;-35
2023/05/23 07:47:51;;;;;;;6.88;4.20;;;16.70;99.90;;;;;;4990763;28;20210;-34
2023/05/23 07:50:19;;;;;;;10.50;4.70;;;16.70;99.90;;;;;;4985274;28;20213;-35
2023/05/23 07:52:50;;;;;;;7.80;3.85;;;16.70;99.90;;;;;;4993991;28;20728;-33
2023/05/23 07:55:18;;;;;;;9.18;4.20;;;16.70;99.90;;;;;;4991887;28;20206;-34
2023/05/23 07:57:53;;;;;;;10.13;4.40;;;16.70;99.90;;;;;;4985520;28;20234;-34
2023/05/23 08:00:23;;;;;;;7.32;4.00;;;16.60;99.90;;;;;;4985743;28;20206;-33
2023/05/23 08:02:53;;;;;;;9.80;4.75;;;16.60;99.90;;;;;;4985561;28;20215;-33
2023/05/23 08:05:24;;;;;;;9.88;4.78;;;16.60;99.90;;;;;;4992049;28;20288;-34
2023/05/23 08:07:53;;;;;;;6.88;4.60;;;16.60;99.90;;;;;;4995020;28;20206;-34
2023/05/23 08:10:24;;;;;;;12.07;5.15;;;16.50;99.90;;;;;;4990161;28;20593;-35
2023/05/23 08:12:54;;;;;;;11.32;5.75;;;16.50;99.90;;;;;;4991065;28;20206;-34
2023/05/23 08:15:23;;;;;;;24.20;5.70;;;16.50;99.90;;;;;;4993128;28;20205;-35
2023/05/23 08:17:55;;;;;;;21.48;7.25;;;16.50;99.90;;;;;;5003389;28;20348;-35
2023/05/23 08:20:29;;;;;;;17.67;5.57;;;16.50;99.90;;;;;;4989228;28;20218;-35
2023/05/23 08:23:04;;;;;;;17.30;6.05;;;16.50;99.90;;;;;;4985977;28;20305;-35
2023/05/23 08:25:32;;;;;;;16.55;5.82;;;16.50;99.90;;;;;;5005066;28;20278;-34
2023/05/23 08:28:02;;;;;;;11.20;6.22;;;16.50;99.90;;;;;;4999219;28;20298;-34
2023/05/23 08:30:32;;;;;;;16.48;6.47;;;16.40;99.90;;;;;;4990319;28;20554;-34
2023/05/23 08:33:04;;;;;;;14.18;6.28;;;16.40;99.90;;;;;;5000349;28;20206;-34
2023/05/23 08:35:34;;;;;;;18.73;6.22;;;16.40;99.90;;;;;;4995364;28;20206;-34
2023/05/23 08:38:06;;;;;;;10.60;5.93;;;16.40;99.90;;;;;;4986414;28;20229;-36
2023/05/23 08:40:36;;;;;;;13.80;6.13;;;16.50;99.90;;;;;;4984153;28;20691;-34
2023/05/23 08:43:09;;;;;;;13.75;5.82;;;16.60;99.90;;;;;;4986960;28;20211;-35
2023/05/23 08:45:40;;;;;;;13.13;6.07;;;16.70;99.90;;;;;;4984948;28;20622;-34
2023/05/23 08:48:12;;;;;;;11.98;6.00;;;16.80;99.90;;;;;;4995798;28;20237;-34
2023/05/23 08:50:49;;;;;;;15.25;6.22;;;16.80;99.90;;;;;;4996240;28;20202;-34
2023/05/23 08:53:26;;;;;;;15.48;6.60;;;16.90;99.90;;;;;;4990951;28;20293;-36
2023/05/23 08:56:01;;;;;;;12.43;5.97;;;17.00;99.90;;;;;;4996125;28;20236;-34
2023/05/23 08:58:34;;;;;;;13.60;6.90;;;17.00;99.90;;;;;;5003198;28;20234;-35
2023/05/23 09:01:03;;;;;;;17.50;7.18;;;17.00;99.90;;;;;;4999181;28;20194;-35
2023/05/23 09:03:32;;;;;;;18.98;7.18;;;17.10;99.90;;;;;;4999480;28;20328;-35
2023/05/23 09:06:01;;;;;;;14.80;6.40;;;17.10;99.90;;;;;;4989675;28;20702;-35
2023/05/23 09:08:31;;;;;;;12.85;5.80;;;17.00;99.90;;;;;;4999589;28;20289;-35
2023/05/23 09:11:03;;;;;;;16.15;6.63;;;17.10;99.90;;;;;;5001411;28;20226;-34
2023/05/23 09:13:33;;;;;;;14.45;6.30;;;17.10;99.90;;;;;;4984506;28;20630;-34
2023/05/23 09:16:05;;;;;;;11.65;5.60;;;17.20;99.90;;;;;;4984568;28;20570;-35
2023/05/23 09:18:39;;;;;;;12.50;5.00;;;17.10;99.90;;;;;;4989223;28;20260;-34
2023/05/23 09:21:08;;;;;;;9.23;4.88;;;17.10;99.90;;;;;;4992234;28;20210;-35
2023/05/23 09:23:39;;;;;;;11.02;4.95;;;17.30;99.90;;;;;;4983799;28;20245;-34
2023/05/23 09:26:12;;;;;;;10.35;5.20;;;17.30;99.90;;;;;;4989974;28;20553;-34
2023/05/23 09:28:42;;;;;;;15.88;5.65;;;17.30;99.90;;;;;;5002716;28;20221;-35
2023/05/23 09:31:12;;;;;;;9.55;6.03;;;17.40;99.90;;;;;;5002964;28;20206;-34
2023/05/23 09:33:46;;;;;;;15.00;5.55;;;17.30;99.90;;;;;;4993959;28;20210;-35
2023/05/23 09:36:18;;;;;;;10.98;5.03;;;17.30;99.90;;;;;;4999252;28;20208;-35
2023/05/23 09:38:51;;;;;;;10.82;5.38;;;17.30;99.90;;;;;;4999201;28;20226;-35
2023/05/23 09:41:20;;;;;;;13.63;6.00;;;17.30;99.90;;;;;;5002292;28;20669;-34
2023/05/23 09:43:51;;;;;;;13.85;5.75;;;17.30;99.90;;;;;;4994052;28;20205;-34
2023/05/23 09:46:19;;;;;;;12.40;6.10;;;17.20;99.90;;;;;;4989933;28;20308;-34
2023/05/23 09:48:51;;;;;;;10.98;5.68;;;17.30;99.90;;;;;;4981883;28;20214;-35
2023/05/23 09:51:22;;;;;;;12.00;5.55;;;17.30;99.90;;;;;;4989465;28;20276;-35
2023/05/23 09:53:49;;;;;;;18.77;6.57;;;17.40;99.90;;;;;;4993047;28;20202;-34
2023/05/23 09:56:22;;;;;;;14.10;5.95;;;17.50;99.90;;;;;;4995318;28;20599;-35
2023/05/23 09:58:57;;;;;;;12.63;5.78;;;17.60;99.90;;;;;;4989030;28;20221;-34
2023/05/23 10:01:26;;;;;;;14.63;5.80;;;17.70;99.90;;;;;;4985728;28;20218;-35
2023/05/23 10:03:56;;;;;;;13.68;6.38;;;17.70;99.90;;;;;;4982590;28;20777;-34
2023/05/23 10:06:34;;;;;;;11.52;5.80;;;17.60;99.90;;;;;;4990555;28;20581;-34
2023/05/23 10:09:06;;;;;;;10.43;5.88;;;17.60;99.90;;;;;;5002054;28;20259;-35
2023/05/23 10:11:33;;;;;;;15.02;6.20;;;17.60;99.90;;;;;;4996312;28;20209;-34
2023/05/23 10:14:09;;;;;;;13.20;5.65;;;17.60;99.90;;;;;;5001554;28;20214;-34
2023/05/23 10:17:00;;;;;;;11.55;5.30;;;17.60;99.90;;;;;;4987877;28;20225;-34
2023/05/23 10:19:40;;;;;;;12.75;5.63;;;17.60;99.90;;;;;;4985163;28;20237;-34
2023/05/23 10:22:14;;;;;;;11.75;5.50;;;17.60;99.90;;;;;;4991357;28;20214;-34
2023/05/23 10:24:45;;;;;;;12.20;5.53;;;17.70;99.90;;;;;;4983181;28;20555;-34
2023/05/23 10:27:12;;;;;;;16.90;6.18;;;17.70;99.90;;;;;;4991721;28;20217;-34
2023/05/23 10:29:40;;;;;;;9.20;5.70;;;17.70;99.90;;;;;;4996679;28;20213;-34
2023/05/23 10:32:13;;;;;;;12.55;6.13;;;17.80;99.90;;;;;;5001510;28;20211;-34
2023/05/23 10:35:11;;;;;;;11.10;5.45;;;17.80;99.90;;;;;;4996097;28;20245;-33
2023/05/23 10:37:43;;;;;;;11.55;5.25;;;17.90;99.90;;;;;;4997684;28;20695;-34
2023/05/23 10:40:11;;;;;;;11.52;5.18;;;17.90;99.90;;;;;;5002340;28;20235;-34
2023/05/23 10:43:06;;;;;;;12.40;5.50;;;18.00;99.90;;;;;;4997611;28;20210;-34
2023/05/23 10:45:44;;;;;;;12.43;5.25;;;18.00;99.90;;;;;;4983882;28;20203;-34
2023/05/23 10:48:30;;;;;;;10.50;4.50;;;18.00;99.90;;;;;;4990727;28;20201;-34
2023/05/23 10:51:10;;;;;;;15.75;6.32;;;18.00;99.90;;;;;;4994041;28;20272;-34
2023/05/23 10:53:45;;;;;;;15.35;6.05;;;18.10;99.90;;;;;;4989540;28;20209;-34
2023/05/23 10:56:22;;;;;;;13.32;5.95;;;18.10;99.90;;;;;;5006207;28;20212;-34
2023/05/23 10:58:54;;;;;;;13.70;5.93;;;18.00;99.90;;;;;;5004338;28;20719;-34
2023/05/23 11:01:25;;;;;;;9.30;5.40;;;18.00;99.90;;;;;;5006960;28;20774;-34
2023/05/23 11:03:55;;;;;;;9.05;4.93;;;18.10;99.90;;;;;;5001760;28;20202;-34
2023/05/23 11:06:43;;;;;;;7.25;4.35;;;18.20;99.90;;;;;;4990538;28;20242;-34
2023/05/23 11:09:17;;;;;;;7.82;4.68;;;18.20;99.90;;;;;;4988585;28;20217;-34
2023/05/23 11:11:51;;;;;;;8.63;4.45;;;18.30;99.90;;;;;;4999286;28;20220;-33
2023/05/23 11:14:39;;;;;;;6.93;4.72;;;18.30;99.90;;;;;;4989936;28;20225;-34
2023/05/23 11:17:18;;;;;;;8.55;4.30;;;18.30;99.90;;;;;;4988258;28;20217;-34
2023/05/23 11:20:00;;;;;;;7.15;4.07;;;18.40;99.90;;;;;;5002278;28;20221;-34
2023/05/23 11:22:35;;;;;;;7.85;4.28;;;18.50;99.90;;;;;;4990621;28;20230;-34
2023/05/23 11:25:11;;;;;;;10.18;4.28;;;18.50;99.90;;;;;;4998203;28;20193;-34
2023/05/23 11:27:45;;;;;;;14.15;5.10;;;18.50;99.90;;;;;;5004962;28;20228;-34
2023/05/23 11:30:16;;;;;;;6.80;4.50;;;18.60;99.90;;;;;;5001778;28;20216;-34
2023/05/23 11:32:54;;;;;;;8.15;4.38;;;18.70;99.90;;;;;;4994216;28;20209;-34
2023/05/23 11:35:28;;;;;;;7.38;4.00;;;18.80;99.90;;;;;;5003610;28;20209;-34
2023/05/23 11:37:56;;;;;;;9.88;4.10;;;19.00;99.90;;;;;;4995942;28;20602;-34
2023/05/23 11:40:31;;;;;;;12.48;4.78;;;19.00;99.90;;;;;;4986964;28;20554;-34
2023/05/23 11:42:59;;;;;;;5.80;3.55;;;18.90;99.90;;;;;;4990722;28;20206;-34
2023/05/23 11:45:31;;;;;;;8.90;4.05;;;18.90;99.90;;;;;;4990788;28;20357;-34
2023/05/23 11:48:05;;;;;;;7.07;3.30;;;18.90;99.90;;;;;;4983447;28;20219;-34
2023/05/23 11:50:33;;;;;;;6.85;3.17;;;18.80;99.90;;;;;;4984136;28;20206;-34
2023/05/23 11:53:00;;;;;;;6.95;3.60;;;18.80;99.90;;;;;;4983648;28;20209;-34
2023/05/23 11:55:30;;;;;;;8.65;3.90;;;18.90;99.90;;;;;;4982713;28;20213;-34
2023/05/23 11:57:59;;;;;;;14.32;4.18;;;18.80;99.90;;;;;;4998345;28;20237;-33
2023/05/23 12:00:28;;;;;;;9.98;3.67;;;18.70;99.90;;;;;;5001434;28;20267;-34
2023/05/23 12:03:06;;;;;;;10.57;3.03;;;18.60;99.90;;;;;;4996130;28;20198;-34
2023/05/23 12:05:34;;;;;;;9.38;3.08;;;18.70;99.90;;;;;;4997158;28;20225;-34
2023/05/23 12:08:04;;;;;;;11.88;3.50;;;18.70;99.90;;;;;;4985838;28;20255;-34
2023/05/23 12:10:33;;;;;;;9.93;3.17;;;18.80;99.90;;;;;;4992387;28;20263;-34
2023/05/23 12:13:01;;;;;;;8.43;3.00;;;18.70;99.90;;;;;;4993426;28;20237;-34
2023/05/23 12:15:34;;;;;;;7.97;3.38;;;18.80;99.90;;;;;;4991328;28;20242;-34
2023/05/23 12:18:01;;;;;;;11.13;3.72;;;18.80;99.90;;;;;;4996594;28;20210;-34
2023/05/23 12:20:34;;;;;;;9.00;3.65;;;18.90;99.90;;;;;;4985920;28;20680;-34
2023/05/23 12:23:06;;;;;;;10.68;3.45;;;19.00;99.90;;;;;;4989573;28;20214;-35
2023/05/23 12:25:40;;;;;;;8.90;3.45;;;19.00;99.90;;;;;;4991487;28;21054;-34
2023/05/23 12:28:12;;;;;;;7.90;3.42;;;19.10;99.90;;;;;;4992929;28;20197;-34
2023/05/23 12:30:45;;;;;;;14.50;3.22;;;19.20;99.90;;;;;;4993430;28;20224;-34
2023/05/23 12:33:15;;;;;;;13.38;4.05;;;19.30;99.90;;;;;;4988249;28;20214;-34
2023/05/23 12:35:47;;;;;;;10.30;3.75;;;19.20;99.90;;;;;;4992914;28;20546;-34
2023/05/23 12:38:18;;;;;;;8.75;3.60;;;19.20;99.90;;;;;;5004175;28;20371;-34
2023/05/23 12:41:05;;;;;;;9.13;3.60;;;19.10;99.90;;;;;;4991761;28;20584;-34
2023/05/23 12:43:37;;;;;;;9.63;3.22;;;19.10;99.90;;;;;;4992411;28;20212;-34
2023/05/23 12:46:09;;;;;;;14.25;4.07;;;19.20;99.90;;;;;;4987400;28;20202;-35
2023/05/23 12:48:37;;;;;;;14.40;4.07;;;19.20;99.90;;;;;;4999010;28;20213;-34
2023/05/23 12:51:06;;;;;;;17.10;4.28;;;19.10;99.90;;;;;;4976449;28;20203;-34
2023/05/23 12:53:41;;;;;;;13.60;3.65;;;19.00;99.90;;;;;;4985167;28;20221;-34